sensor_id;sensor_type;location;lat;lon;timestamp;pressure;altitude;pressure_sealevel;temperature;humidity
24302;BME280;12421;49.732;20.078;2023-04-30T00:09:05;96670.57;;;11.56;79.96
24302;BME280;12421;49.732;20.078;2023-04-30T00:19:09;96668.53;;;11.61;79.83
24302;BME280;12421;49.732;20.078;2023-04-30T00:29:12;96664.24;;;11.56;79.75
24302;BME280;12421;49.732;20.078;2023-04-30T00:39:15;96661.52;;;11.50;79.93
24302;BME280;12421;49.732;20.078;2023-04-30T00:49:18;96670.80;;;11.43;80.16
24302;BME280;12421;49.732;20.078;2023-04-30T00:59:23;96670.20;;;11.47;80.55
24302;BME280;12421;49.732;20.078;2023-04-30T01:09:27;96666.86;;;11.57;80.41
24302;BME280;12421;49.732;20.078;2023-04-30T01:19:39;96670.77;;;11.55;80.46
24302;BME280;12421;49.732;20.078;2023-04-30T01:29:44;96672.90;;;11.43;80.60
24302;BME280;12421;49.732;20.078;2023-04-30T01:50:51;96680.27;;;11.26;82.17
24302;BME280;12421;49.732;20.078;2023-04-30T02:00:55;96678.42;;;11.30;82.75
24302;BME280;12421;49.732;20.078;2023-04-30T02:10:58;96681.46;;;11.37;82.86
24302;BME280;12421;49.732;20.078;2023-04-30T02:21:01;96683.97;;;11.35;83.23
24302;BME280;12421;49.732;20.078;2023-04-30T02:31:04;96686.30;;;11.42;83.40
24302;BME280;12421;49.732;20.078;2023-04-30T02:41:08;96691.03;;;11.42;83.04
24302;BME280;12421;49.732;20.078;2023-04-30T02:51:11;96698.71;;;11.25;83.06
24302;BME280;12421;49.732;20.078;2023-04-30T03:01:14;96696.11;;;11.13;83.37
24302;BME280;12421;49.732;20.078;2023-04-30T03:11:18;96704.52;;;11.13;83.57
24302;BME280;12421;49.732;20.078;2023-04-30T03:21:21;96703.78;;;11.06;83.80
24302;BME280;12421;49.732;20.078;2023-04-30T03:31:24;96713.04;;;10.99;83.58
24302;BME280;12421;49.732;20.078;2023-04-30T03:41:27;96719.64;;;10.92;83.65
24302;BME280;12421;49.732;20.078;2023-04-30T03:51:30;96724.81;;;10.86;83.92
24302;BME280;12421;49.732;20.078;2023-04-30T04:01:33;96737.50;;;10.84;84.05
24302;BME280;12421;49.732;20.078;2023-04-30T04:11:37;96748.95;;;10.82;84.47
24302;BME280;12421;49.732;20.078;2023-04-30T04:21:40;96757.33;;;10.85;84.58
24302;BME280;12421;49.732;20.078;2023-04-30T04:31:48;96774.11;;;10.90;84.85
24302;BME280;12421;49.732;20.078;2023-04-30T04:41:53;96784.54;;;10.98;84.80
24302;BME280;12421;49.732;20.078;2023-04-30T04:51:57;96792.55;;;11.02;84.45
24302;BME280;12421;49.732;20.078;2023-04-30T05:02:00;96804.11;;;11.04;84.78
24302;BME280;12421;49.732;20.078;2023-04-30T05:12:04;96815.64;;;11.09;84.49
24302;BME280;12421;49.732;20.078;2023-04-30T05:22:07;96821.55;;;11.01;84.66
24302;BME280;12421;49.732;20.078;2023-04-30T05:32:11;96832.71;;;11.07;84.86
24302;BME280;12421;49.732;20.078;2023-04-30T05:42:14;96847.33;;;11.05;84.78
24302;BME280;12421;49.732;20.078;2023-04-30T05:52:17;96860.79;;;11.09;85.11
24302;BME280;12421;49.732;20.078;2023-04-30T06:02:20;96873.79;;;11.09;84.71
24302;BME280;12421;49.732;20.078;2023-04-30T06:12:23;96896.09;;;10.98;84.31
24302;BME280;12421;49.732;20.078;2023-04-30T06:22:29;96908.23;;;10.82;83.73
24302;BME280;12421;49.732;20.078;2023-04-30T06:32:32;96920.90;;;10.65;83.50
24302;BME280;12421;49.732;20.078;2023-04-30T06:42:36;96938.04;;;10.38;83.03
24302;BME280;12421;49.732;20.078;2023-04-30T06:52:39;96959.90;;;10.03;83.11
24302;BME280;12421;49.732;20.078;2023-04-30T07:02:42;96972.70;;;9.81;82.66
24302;BME280;12421;49.732;20.078;2023-04-30T07:12:45;96987.88;;;9.67;82.83
24302;BME280;12421;49.732;20.078;2023-04-30T07:22:49;97007.80;;;9.47;81.98
24302;BME280;12421;49.732;20.078;2023-04-30T07:32:52;97027.64;;;9.40;80.87
24302;BME280;12421;49.732;20.078;2023-04-30T07:42:55;97040.67;;;9.23;79.22
24302;BME280;12421;49.732;20.078;2023-04-30T07:52:59;97061.54;;;9.19;79.21
24302;BME280;12421;49.732;20.078;2023-04-30T08:03:03;97077.11;;;9.21;79.64
24302;BME280;12421;49.732;20.078;2023-04-30T08:13:06;97078.98;;;9.40;80.06
24302;BME280;12421;49.732;20.078;2023-04-30T08:23:10;97078.24;;;9.82;79.93
24302;BME280;12421;49.732;20.078;2023-04-30T08:33:17;97081.23;;;10.38;78.24
24302;BME280;12421;49.732;20.078;2023-04-30T08:43:36;97082.98;;;11.15;76.87
24302;BME280;12421;49.732;20.078;2023-04-30T08:53:41;97094.10;;;11.59;74.81
24302;BME280;12421;49.732;20.078;2023-04-30T09:03:44;97106.22;;;11.75;73.43
24302;BME280;12421;49.732;20.078;2023-04-30T09:13:52;97117.33;;;11.74;72.49
24302;BME280;12421;49.732;20.078;2023-04-30T09:24:00;97121.61;;;11.82;71.86
24302;BME280;12421;49.732;20.078;2023-04-30T09:34:03;97113.53;;;12.07;71.28
24302;BME280;12421;49.732;20.078;2023-04-30T09:44:25;97116.49;;;12.45;71.26
24302;BME280;12421;49.732;20.078;2023-04-30T09:54:30;97115.77;;;12.91;69.99
24302;BME280;12421;49.732;20.078;2023-04-30T10:04:35;97107.16;;;13.19;68.33
24302;BME280;12421;49.732;20.078;2023-04-30T10:14:47;97097.75;;;13.66;68.23
24302;BME280;12421;49.732;20.078;2023-04-30T10:24:53;97083.97;;;14.26;65.96
24302;BME280;12421;49.732;20.078;2023-04-30T10:35:19;97081.98;;;14.29;65.27
24302;BME280;12421;49.732;20.078;2023-04-30T10:45:35;97080.77;;;14.35;64.82
24302;BME280;12421;49.732;20.078;2023-04-30T10:56:06;97076.13;;;14.37;64.51
24302;BME280;12421;49.732;20.078;2023-04-30T11:06:13;97061.04;;;14.89;63.39
24302;BME280;12421;49.732;20.078;2023-04-30T11:16:17;97058.77;;;15.35;62.07
24302;BME280;12421;49.732;20.078;2023-04-30T11:26:22;97059.17;;;15.26;61.89
24302;BME280;12421;49.732;20.078;2023-04-30T11:36:29;97055.50;;;15.39;60.20
24302;BME280;12421;49.732;20.078;2023-04-30T11:46:33;97065.74;;;15.32;58.75
24302;BME280;12421;49.732;20.078;2023-04-30T11:56:37;97061.91;;;15.68;56.92
24302;BME280;12421;49.732;20.078;2023-04-30T12:06:43;97064.77;;;15.67;56.55
24302;BME280;12421;49.732;20.078;2023-04-30T12:16:50;97061.79;;;15.85;55.68
24302;BME280;12421;49.732;20.078;2023-04-30T12:38:41;97041.77;;;16.24;53.45
24302;BME280;12421;49.732;20.078;2023-04-30T12:48:50;97042.70;;;16.35;54.07
24302;BME280;12421;49.732;20.078;2023-04-30T12:58:59;97036.70;;;16.62;50.72
24302;BME280;12421;49.732;20.078;2023-04-30T13:09:02;97035.70;;;16.49;51.23
24302;BME280;12421;49.732;20.078;2023-04-30T13:19:11;97027.17;;;16.44;50.50
24302;BME280;12421;49.732;20.078;2023-04-30T13:29:17;97019.66;;;16.29;50.59
24302;BME280;12421;49.732;20.078;2023-04-30T13:39:23;97021.75;;;16.08;49.28
24302;BME280;12421;49.732;20.078;2023-04-30T13:49:26;97017.56;;;15.54;49.83
24302;BME280;12421;49.732;20.078;2023-04-30T13:59:29;97009.52;;;15.68;49.90
24302;BME280;12421;49.732;20.078;2023-04-30T14:09:33;96997.92;;;15.94;49.57
24302;BME280;12421;49.732;20.078;2023-04-30T14:19:38;97004.84;;;16.05;47.85
24302;BME280;12421;49.732;20.078;2023-04-30T14:29:41;97004.45;;;16.18;48.92
24302;BME280;12421;49.732;20.078;2023-04-30T14:39:44;97001.02;;;16.08;46.60
24302;BME280;12421;49.732;20.078;2023-04-30T14:49:48;97003.34;;;15.80;44.37
24302;BME280;12421;49.732;20.078;2023-04-30T14:59:54;97009.55;;;15.73;44.65
24302;BME280;12421;49.732;20.078;2023-04-30T15:09:59;97014.11;;;15.69;46.09
24302;BME280;12421;49.732;20.078;2023-04-30T15:20:03;97015.20;;;15.74;43.38
24302;BME280;12421;49.732;20.078;2023-04-30T15:30:08;97015.56;;;15.50;42.41
24302;BME280;12421;49.732;20.078;2023-04-30T15:40:11;97019.86;;;15.41;43.19
24302;BME280;12421;49.732;20.078;2023-04-30T15:50:17;97017.73;;;15.22;43.60
24302;BME280;12421;49.732;20.078;2023-04-30T16:00:21;97022.22;;;15.07;44.11
24302;BME280;12421;49.732;20.078;2023-04-30T16:10:25;97019.56;;;14.94;44.81
24302;BME280;12421;49.732;20.078;2023-04-30T16:20:29;97021.36;;;14.86;44.33
24302;BME280;12421;49.732;20.078;2023-04-30T16:30:33;97029.66;;;14.79;44.15
24302;BME280;12421;49.732;20.078;2023-04-30T16:40:37;97027.63;;;14.62;46.74
24302;BME280;12421;49.732;20.078;2023-04-30T16:50:40;97032.88;;;14.36;47.77
24302;BME280;12421;49.732;20.078;2023-04-30T17:00:47;97037.58;;;13.92;48.62
24302;BME280;12421;49.732;20.078;2023-04-30T17:11:02;97050.00;;;13.39;49.33
24302;BME280;12421;49.732;20.078;2023-04-30T17:21:05;97059.08;;;12.96;49.67
24302;BME280;12421;49.732;20.078;2023-04-30T17:31:08;97062.27;;;12.54;50.55
24302;BME280;12421;49.732;20.078;2023-04-30T17:41:19;97078.48;;;12.09;51.66
24302;BME280;12421;49.732;20.078;2023-04-30T17:51:23;97091.23;;;11.64;51.75
24302;BME280;12421;49.732;20.078;2023-04-30T18:01:26;97104.81;;;11.10;53.68
24302;BME280;12421;49.732;20.078;2023-04-30T18:11:29;97119.23;;;10.49;55.24
24302;BME280;12421;49.732;20.078;2023-04-30T18:21:33;97126.92;;;9.96;56.78
24302;BME280;12421;49.732;20.078;2023-04-30T18:31:36;97136.10;;;9.38;58.70
24302;BME280;12421;49.732;20.078;2023-04-30T18:41:39;97148.46;;;8.76;60.51
24302;BME280;12421;49.732;20.078;2023-04-30T18:51:42;97162.90;;;8.13;62.55
24302;BME280;12421;49.732;20.078;2023-04-30T19:01:49;97179.14;;;7.62;63.65
24302;BME280;12421;49.732;20.078;2023-04-30T19:11:52;97189.02;;;7.16;64.70
24302;BME280;12421;49.732;20.078;2023-04-30T19:21:56;97196.67;;;6.65;65.86
24302;BME280;12421;49.732;20.078;2023-04-30T19:31:59;97210.74;;;6.08;67.29
24302;BME280;12421;49.732;20.078;2023-04-30T19:42:08;97212.57;;;5.46;68.25
24302;BME280;12421;49.732;20.078;2023-04-30T19:52:19;97217.93;;;4.96;69.40
24302;BME280;12421;49.732;20.078;2023-04-30T20:02:26;97231.04;;;4.57;70.42
24302;BME280;12421;49.732;20.078;2023-04-30T20:12:31;97230.56;;;4.30;71.17
24302;BME280;12421;49.732;20.078;2023-04-30T20:22:34;97238.84;;;4.09;71.66
24302;BME280;12421;49.732;20.078;2023-04-30T20:32:38;97253.71;;;3.80;72.12
24302;BME280;12421;49.732;20.078;2023-04-30T20:42:44;97263.96;;;3.47;72.90
24302;BME280;12421;49.732;20.078;2023-04-30T20:52:48;97268.91;;;3.28;73.34
24302;BME280;12421;49.732;20.078;2023-04-30T21:02:51;97272.56;;;3.14;73.90
24302;BME280;12421;49.732;20.078;2023-04-30T21:12:55;97273.81;;;2.86;74.13
24302;BME280;12421;49.732;20.078;2023-04-30T21:23:00;97278.54;;;2.67;74.49
24302;BME280;12421;49.732;20.078;2023-04-30T21:33:04;97278.20;;;2.47;74.79
24302;BME280;12421;49.732;20.078;2023-04-30T21:43:07;97285.73;;;2.18;74.65
24302;BME280;12421;49.732;20.078;2023-04-30T21:53:11;97296.79;;;1.92;75.54
24302;BME280;12421;49.732;20.078;2023-04-30T22:03:15;97302.55;;;1.70;75.97
24302;BME280;12421;49.732;20.078;2023-04-30T22:13:18;97310.42;;;1.61;76.43
24302;BME280;12421;49.732;20.078;2023-04-30T22:23:21;97316.48;;;1.44;76.36
24302;BME280;12421;49.732;20.078;2023-04-30T22:33:25;97322.98;;;1.19;76.49
24302;BME280;12421;49.732;20.078;2023-04-30T22:43:28;97330.48;;;1.00;77.56
24302;BME280;12421;49.732;20.078;2023-04-30T22:53:32;97335.28;;;0.83;77.49
24302;BME280;12421;49.732;20.078;2023-04-30T23:03:36;97330.36;;;0.66;78.10
24302;BME280;12421;49.732;20.078;2023-04-30T23:13:40;97335.15;;;0.59;78.28
24302;BME280;12421;49.732;20.078;2023-04-30T23:23:43;97338.02;;;0.52;78.74
24302;BME280;12421;49.732;20.078;2023-04-30T23:33:47;97343.73;;;0.48;79.19
24302;BME280;12421;49.732;20.078;2023-04-30T23:43:50;97355.55;;;0.44;79.23
24302;BME280;12421;49.732;20.078;2023-04-30T23:53:53;97360.40;;;0.40;79.06
